New Munster, Wisconsin
Current Conditions -  °F | °C
As of 9:35 AM on Friday 28 Nov 2014 (Local Time) from KBUU Reporting Station
Broken Clouds Broken Clouds  
Wind Chill:   Ceiling: 7000
Heat Index: 19°   Visibility: 10mi
Dew Point: 13°   Wind: 10mph
Humidity: 80%   Direction: 160°SSE
Pressure: 30.19"   Gusts: NA
Location:  42.58°N, 88.23°W
Report Text: KBUU 281535Z AUTO 16009KT 10SM SCT033 SCT039 BKN070 M07/M10 A3019 RMK AO2 T10751104
Loading
Personal Weather Stations






























Interactive Weather Map New forecast layout! Learn more

10-Day Weather Forecast

Advertisements
Track Severe Weather on mobile